Time;durP1;ratioP1;P1;durP2;ratioP2;P2;SDS_P1;SDS_P2;PMS_P1;PMS_P2;Temp;Humidity;BMP_temperature;BMP_pressure;BME280_temperature;BME280_humidity;BME280_pressure;Samples;Min_cycle;Max_cycle;Signal;HPM_P1;HPM_P2
2024/03/17 00:03:40;;;;;;;5.32;2.40;;;;;;;7.68;59.15;100729.16;10414206;28;20080;-62
2024/03/17 00:08:41;;;;;;;4.50;1.80;;;;;;;7.71;59.17;100731.63;10431569;28;20132;-61
2024/03/17 00:13:42;;;;;;;4.75;1.60;;;;;;;7.66;59.18;100723.13;10413629;28;20085;-61
2024/03/17 00:18:43;;;;;;;2.83;1.45;;;;;;;7.61;59.39;100714.63;10431309;28;20421;-61
2024/03/17 00:23:44;;;;;;;2.55;1.58;;;;;;;7.55;59.42;100716.63;10426791;28;20048;-61
2024/03/17 00:28:48;;;;;;;3.58;1.80;;;;;;;7.45;59.61;100716.06;10427373;28;20033;-61
2024/03/17 00:33:52;;;;;;;2.42;1.50;;;;;;;7.40;59.74;100720.59;10429957;28;20099;-61
2024/03/17 00:38:53;;;;;;;7.20;1.73;;;;;;;7.39;59.67;100710.22;10447033;28;20052;-61
2024/03/17 00:43:54;;;;;;;5.18;1.70;;;;;;;7.28;59.84;100708.00;10429534;28;20044;-62
2024/03/17 00:48:56;;;;;;;3.47;1.50;;;;;;;7.17;59.91;100700.56;10430012;28;20072;-61
2024/03/17 00:53:58;;;;;;;3.80;1.75;;;;;;;6.84;59.93;100701.66;10434326;28;20048;-62
2024/03/17 00:58:59;;;;;;;2.72;1.50;;;;;;;6.66;60.45;100691.84;10437709;28;20041;-63
2024/03/17 01:04:00;;;;;;;2.80;1.70;;;;;;;6.62;60.62;100687.66;10436595;28;20496;-63
2024/03/17 01:09:01;;;;;;;4.43;1.90;;;;;;;6.60;60.81;100683.38;10436722;28;20060;-63
2024/03/17 01:14:02;;;;;;;2.50;1.70;;;;;;;6.50;60.99;100679.38;10469708;28;20099;-62
2024/03/17 01:19:04;;;;;;;4.47;2.30;;;;;;;6.45;61.03;100676.09;10436838;28;20075;-62
2024/03/17 01:24:05;;;;;;;2.80;1.67;;;;;;;6.37;61.13;100675.47;10436072;28;20051;-62
2024/03/17 01:29:06;;;;;;;4.03;1.90;;;;;;;6.30;61.14;100674.81;10436690;28;20132;-59
2024/03/17 01:34:07;;;;;;;2.75;1.63;;;;;;;6.20;61.37;100676.81;10435234;28;20047;-62
2024/03/17 01:39:08;;;;;;;2.78;1.73;;;;;;;6.10;61.59;100664.97;10435762;28;20095;-63
2024/03/17 01:44:22;;;;;;;3.42;1.77;;;;;;;5.98;61.86;100654.94;10468559;28;20577;-63
2024/03/17 01:49:26;;;;;;;2.72;1.50;;;;;;;5.85;61.92;100643.25;10435679;28;20040;-62
2024/03/17 01:54:27;;;;;;;6.45;1.60;;;;;;;5.77;62.10;100645.22;10433978;28;20128;-62
2024/03/17 01:59:28;;;;;;;2.47;1.70;;;;;;;5.75;62.12;100638.34;10435076;28;20397;-63
2024/03/17 02:04:30;;;;;;;3.08;1.88;;;;;;;5.68;62.14;100640.28;10416492;28;20571;-61
2024/03/17 02:09:31;;;;;;;2.63;1.55;;;;;;;5.60;62.26;100638.78;10417481;28;20172;-61
2024/03/17 02:14:32;;;;;;;2.45;1.48;;;;;;;5.56;62.31;100645.81;10433992;28;20141;-62
2024/03/17 02:19:33;;;;;;;4.75;1.60;;;;;;;5.49;62.29;100639.94;10434140;28;20465;-62
2024/03/17 02:24:35;;;;;;;2.78;1.60;;;;;;;5.38;62.37;100636.81;10417220;28;20076;-61
2024/03/17 02:29:36;;;;;;;5.55;1.73;;;;;;;5.33;62.29;100635.25;10434195;28;20049;-62
2024/03/17 02:34:38;;;;;;;2.47;1.30;;;;;;;5.24;62.54;100622.50;10433540;28;20552;-62
2024/03/17 02:39:40;;;;;;;5.22;1.83;;;;;;;5.18;62.79;100614.88;10432365;28;20175;-62
2024/03/17 02:44:41;;;;;;;2.38;1.70;;;;;;;5.06;62.31;100613.50;10432715;28;20122;-62
2024/03/17 02:49:47;;;;;;;2.13;1.40;;;;;;;4.84;62.93;100617.50;10432666;28;20142;-61
2024/03/17 02:54:48;;;;;;;1.83;1.40;;;;;;;4.85;63.00;100603.66;10416234;28;20037;-62
2024/03/17 02:59:49;;;;;;;3.92;1.42;;;;;;;4.86;62.87;100620.06;10415823;28;20087;-62
2024/03/17 03:04:50;;;;;;;1.85;1.50;;;;;;;4.89;62.88;100625.16;10433019;28;20452;-62
2024/03/17 03:09:51;;;;;;;5.53;1.58;;;;;;;4.88;62.79;100623.47;10414934;28;20127;-62
2024/03/17 03:14:53;;;;;;;2.30;1.50;;;;;;;4.76;62.83;100619.44;10431111;28;20049;-62
2024/03/17 03:19:55;;;;;;;4.72;1.90;;;;;;;4.44;62.90;100617.66;10431622;28;20436;-60
2024/03/17 03:24:56;;;;;;;6.28;2.65;;;;;;;4.44;62.64;100622.81;10415273;28;20049;-61
2024/03/17 03:29:59;;;;;;;3.30;1.65;;;;;;;4.31;63.23;100621.41;10398560;28;20044;-61
2024/03/17 03:35:00;;;;;;;2.15;1.45;;;;;;;4.36;63.23;100632.50;10431787;28;20091;-61
2024/03/17 03:40:08;;;;;;;2.88;1.77;;;;;;;4.37;63.29;100630.78;10430938;28;20144;-61
2024/03/17 03:45:12;;;;;;;2.88;1.55;;;;;;;4.34;63.26;100641.19;10432064;28;20045;-60
2024/03/17 03:50:15;;;;;;;3.72;1.60;;;;;;;4.34;63.29;100643.78;10430636;28;20450;-60
2024/03/17 03:55:17;;;;;;;3.17;1.88;;;;;;;4.32;63.26;100643.84;10464691;28;20148;-61
2024/03/17 04:00:21;;;;;;;2.50;1.40;;;;;;;4.30;63.25;100648.19;10430467;28;20073;-61
2024/03/17 04:05:22;;;;;;;2.30;1.58;;;;;;;4.22;63.52;100646.66;10431066;28;20083;-61
2024/03/17 04:10:24;;;;;;;2.75;1.60;;;;;;;4.06;63.60;100646.16;10414542;28;20151;-61
2024/03/17 04:15:25;;;;;;;5.50;2.05;;;;;;;4.07;63.77;100645.25;10464601;28;20452;-61
2024/03/17 04:20:26;;;;;;;47.65;2.85;;;;;;;3.87;63.66;100644.84;10430600;28;20087;-61
2024/03/17 04:25:27;;;;;;;2.92;1.70;;;;;;;3.79;63.76;100646.69;10431261;28;20045;-61
2024/03/17 04:30:28;;;;;;;5.18;1.75;;;;;;;3.77;63.89;100633.81;10438517;28;20183;-60
2024/03/17 04:35:29;;;;;;;4.88;2.10;;;;;;;3.80;63.65;100636.31;10421917;28;20049;-61
2024/03/17 04:40:32;;;;;;;7.40;2.75;;;;;;;3.79;63.68;100642.38;10421651;28;20052;-61
2024/03/17 04:45:33;;;;;;;23.48;2.90;;;;;;;3.69;64.12;100634.84;10471606;28;20135;-61
2024/03/17 04:50:34;;;;;;;23.65;2.80;;;;;;;3.65;64.23;100648.72;10437326;28;20048;-60
2024/03/17 04:55:35;;;;;;;2.88;1.48;;;;;;;3.70;64.02;100644.31;10438074;28;20052;-62
2024/03/17 05:00:36;;;;;;;6.95;2.20;;;;;;;3.64;63.43;100637.53;10436827;28;20363;-62
2024/03/17 05:05:37;;;;;;;1.67;1.20;;;;;;;3.39;63.75;100643.22;10421291;28;20139;-62
2024/03/17 05:10:38;;;;;;;2.33;1.42;;;;;;;3.38;64.10;100638.91;10419663;28;20076;-62
2024/03/17 05:15:39;;;;;;;2.53;1.45;;;;;;;3.47;64.06;100642.19;10420911;28;20072;-62
2024/03/17 05:20:40;;;;;;;5.10;2.00;;;;;;;3.59;63.97;100644.53;10436482;28;20827;-62
2024/03/17 05:25:41;;;;;;;3.45;1.70;;;;;;;3.72;63.86;100635.63;10420959;28;20052;-62
2024/03/17 05:30:42;;;;;;;2.72;1.60;;;;;;;3.79;63.79;100642.38;10436012;28;20049;-62
2024/03/17 05:36:03;;;;;;;3.50;1.88;;;;;;;3.72;64.00;100635.63;10436651;28;20501;-62
2024/03/17 05:41:06;;;;;;;5.07;1.52;;;;;;;3.64;63.91;100641.88;10433912;28;20452;-62
2024/03/17 05:46:10;;;;;;;3.35;1.92;;;;;;;3.78;63.83;100645.84;10417463;28;20485;-61
2024/03/17 05:51:12;;;;;;;4.90;2.17;;;;;;;3.89;63.42;100640.47;10435216;28;20080;-61
2024/03/17 05:56:15;;;;;;;6.15;1.95;;;;;;;3.93;63.51;100633.50;10435653;28;20037;-62
2024/03/17 06:01:16;;;;;;;3.55;1.90;;;;;;;4.18;63.30;100648.47;10451507;28;20076;-62
2024/03/17 06:06:17;;;;;;;5.95;2.00;;;;;;;4.33;63.21;100635.16;10418591;28;20132;-62
2024/03/17 06:11:18;;;;;;;4.82;2.83;;;;;;;4.54;62.93;100631.22;10416756;28;20053;-61
2024/03/17 06:16:20;;;;;;;32.78;2.40;;;;;;;4.57;62.77;100633.75;10434371;28;20095;-62
2024/03/17 06:21:21;;;;;;;27.35;3.03;;;;;;;4.60;62.74;100634.53;10450972;28;20122;-62
2024/03/17 06:26:22;;;;;;;9.75;2.80;;;;;;;4.61;62.60;100630.19;10434630;28;20115;-62
2024/03/17 06:31:23;;;;;;;12.13;2.72;;;;;;;4.74;62.81;100623.81;10417204;28;20095;-61
2024/03/17 06:36:25;;;;;;;4.60;2.15;;;;;;;4.99;62.52;100622.31;10467505;28;20094;-62
2024/03/17 06:41:26;;;;;;;35.03;3.55;;;;;;;5.01;62.42;100619.66;10433518;28;20068;-62
2024/03/17 06:46:27;;;;;;;41.28;3.65;;;;;;;5.01;62.43;100619.66;10433487;28;20136;-62
2024/03/17 06:51:28;;;;;;;6.20;2.67;;;;;;;5.18;62.47;100622.66;10415053;28;20089;-62
2024/03/17 06:56:29;;;;;;;11.07;2.97;;;;;;;5.15;62.30;100620.16;10466430;28;20410;-62
2024/03/17 07:01:30;;;;;;;11.38;3.10;;;;;;;5.32;62.19;100620.56;10416305;28;20056;-61
2024/03/17 07:06:31;;;;;;;6.68;3.00;;;;;;;5.44;62.35;100630.59;10433209;28;20048;-61
2024/03/17 07:11:33;;;;;;;4.63;2.63;;;;;;;5.35;62.21;100628.25;10415353;28;20378;-61
2024/03/17 07:16:35;;;;;;;5.10;2.30;;;;;;;5.49;62.28;100620.94;10415769;28;20094;-62
2024/03/17 07:21:36;;;;;;;5.82;2.40;;;;;;;5.62;61.74;100619.69;10431446;28;20155;-61
2024/03/17 07:26:37;;;;;;;4.05;1.95;;;;;;;5.76;61.34;100622.72;10399241;28;20152;-62
2024/03/17 07:31:38;;;;;;;4.35;2.20;;;;;;;6.05;61.24;100619.28;10415299;28;20064;-61
2024/03/17 07:36:39;;;;;;;5.88;3.22;;;;;;;6.07;60.93;100610.53;10429593;28;20044;-62
2024/03/17 07:41:40;;;;;;;3.90;2.10;;;;;;;6.18;60.71;100605.88;10430398;28;20046;-61
2024/03/17 07:46:41;;;;;;;5.32;2.35;;;;;;;6.07;60.37;100594.97;10415657;28;20478;-61
2024/03/17 07:51:43;;;;;;;3.08;1.77;;;;;;;6.23;60.19;100598.78;10414751;28;20118;-61
2024/03/17 07:56:45;;;;;;;4.05;2.08;;;;;;;6.39;59.92;100600.94;10431726;28;20102;-62
2024/03/17 08:01:47;;;;;;;3.88;2.30;;;;;;;6.57;59.57;100613.34;10432304;28;20064;-61
2024/03/17 08:06:48;;;;;;;6.35;2.58;;;;;;;6.68;59.38;100611.22;10431605;28;20049;-61
2024/03/17 08:11:49;;;;;;;3.70;2.10;;;;;;;6.98;59.25;100607.59;10450892;28;20077;-62
2024/03/17 08:16:50;;;;;;;4.03;2.65;;;;;;;7.14;58.83;100587.97;10434023;28;20076;-61
2024/03/17 08:21:51;;;;;;;4.15;2.33;;;;;;;7.04;58.76;100597.81;10417817;28;20548;-61
2024/03/17 08:26:52;;;;;;;4.85;2.10;;;;;;;7.22;58.51;100593.75;10433232;28;20085;-61
2024/03/17 08:31:53;;;;;;;4.78;2.30;;;;;;;7.51;58.22;100584.91;10433758;28;20040;-61
2024/03/17 08:36:56;;;;;;;5.88;2.30;;;;;;;7.92;57.70;100582.41;10433987;28;20041;-61
2024/03/17 08:41:57;;;;;;;6.72;2.20;;;;;;;8.08;56.79;100582.66;10434098;28;20512;-60
2024/03/17 08:46:58;;;;;;;4.07;2.40;;;;;;;8.18;57.01;100594.44;10416334;28;20063;-61
2024/03/17 08:51:59;;;;;;;8.50;2.60;;;;;;;7.98;57.06;100596.94;10433458;28;20124;-61
2024/03/17 08:57:00;;;;;;;4.47;2.58;;;;;;;8.18;56.98;100594.44;10417646;28;20053;-62
2024/03/17 09:02:01;;;;;;;4.25;2.38;;;;;;;8.23;56.70;100589.91;10424736;28;20598;-61
2024/03/17 09:07:03;;;;;;;6.75;2.65;;;;;;;8.68;56.18;100584.59;10430949;28;20144;-61
2024/03/17 09:12:05;;;;;;;5.00;2.58;;;;;;;9.02;55.51;100584.00;10412495;28;20071;-61
2024/03/17 09:17:06;;;;;;;5.22;2.78;;;;;;;9.06;54.99;100573.38;10415167;28;20139;-60
2024/03/17 09:22:07;;;;;;;4.70;2.08;;;;;;;9.45;54.78;100562.94;10464422;28;20135;-60
2024/03/17 09:27:09;;;;;;;4.93;2.78;;;;;;;9.80;53.55;100554.38;10432065;28;20074;-61
2024/03/17 09:32:15;;;;;;;4.13;2.30;;;;;;;9.84;53.51;100552.44;10465864;28;20044;-60
2024/03/17 09:37:16;;;;;;;10.73;2.72;;;;;;;10.22;53.31;100548.84;10432073;28;20092;-60
2024/03/17 09:42:18;;;;;;;4.50;2.20;;;;;;;10.82;52.38;100547.59;10447975;28;20128;-61
2024/03/17 09:47:23;;;;;;;5.50;2.53;;;;;;;10.68;51.78;100535.22;10428833;28;20083;-60
2024/03/17 09:52:25;;;;;;;4.93;2.10;;;;;;;10.63;51.39;100531.97;10416915;28;20049;-61
2024/03/17 09:57:28;;;;;;;4.15;2.53;;;;;;;10.65;51.63;100524.91;10432095;28;20052;-61
2024/03/17 10:02:29;;;;;;;6.47;2.40;;;;;;;10.73;51.12;100530.59;10430385;28;20230;-60
2024/03/17 10:07:38;;;;;;;4.28;2.30;;;;;;;11.09;49.41;100526.09;10414317;28;20125;-57
2024/03/17 10:12:39;;;;;;;3.30;2.00;;;;;;;11.07;50.34;100534.97;10429729;28;20156;-56
2024/03/17 10:17:40;;;;;;;4.80;2.28;;;;;;;11.38;49.84;100515.88;10429813;28;20064;-57
2024/03/17 10:23:01;;;;;;;3.63;1.95;;;;;;;11.89;47.15;100529.56;10412510;28;20440;-57
2024/03/17 10:28:02;;;;;;;2.83;2.03;;;;;;;12.31;49.23;100525.50;10412333;28;20164;-57
2024/03/17 10:33:06;;;;;;;4.00;2.17;;;;;;;12.85;48.10;100533.63;10412135;28;20041;-57
2024/03/17 10:38:12;;;;;;;3.72;2.05;;;;;;;13.14;46.35;100521.38;10462096;28;20064;-57
2024/03/17 10:43:14;;;;;;;6.50;2.80;;;;;;;13.40;47.25;100517.13;10428238;28;20127;-56
2024/03/17 10:48:19;;;;;;;5.93;2.33;;;;;;;13.44;47.24;100521.28;10428308;28;20499;-58
2024/03/17 10:53:27;;;;;;;3.47;1.92;;;;;;;13.92;46.69;100510.31;10428881;28;20044;-58
2024/03/17 10:58:28;;;;;;;3.25;1.88;;;;;;;13.96;45.76;100500.44;10461611;28;20049;-58
2024/03/17 11:03:32;;;;;;;4.75;2.10;;;;;;;14.07;45.54;100498.78;10427380;28;20156;-58
2024/03/17 11:08:34;;;;;;;3.33;1.88;;;;;;;14.11;46.79;100502.06;10427942;28;20045;-58
2024/03/17 11:13:39;;;;;;;2.97;1.80;;;;;;;13.91;45.52;100498.09;10425060;28;20525;-59
2024/03/17 11:18:41;;;;;;;2.83;1.40;;;;;;;13.74;46.12;100485.19;10427777;28;20045;-58
2024/03/17 11:23:42;;;;;;;3.20;1.73;;;;;;;13.85;46.16;100490.59;10394701;28;20065;-59
2024/03/17 11:28:45;;;;;;;2.70;1.83;;;;;;;14.10;45.73;100485.44;10428585;28;20575;-58
2024/03/17 11:33:47;;;;;;;4.07;2.28;;;;;;;14.11;45.49;100475.75;10426124;28;20123;-58
2024/03/17 11:38:54;;;;;;;3.30;1.98;;;;;;;14.09;44.81;100478.50;10409802;28;20530;-58
2024/03/17 11:44:14;;;;;;;2.63;1.67;;;;;;;14.23;44.09;100495.97;10422897;28;20052;-58
2024/03/17 11:49:24;;;;;;;3.03;1.85;;;;;;;14.53;43.19;100486.94;10456368;28;20048;-57
2024/03/17 11:54:29;;;;;;;3.17;1.50;;;;;;;14.38;44.92;100474.78;10390211;28;20052;-57
2024/03/17 11:59:31;;;;;;;3.05;1.70;;;;;;;14.05;44.42;100473.53;10418354;28;20047;-57
2024/03/17 12:04:39;;;;;;;3.65;1.77;;;;;;;13.85;44.75;100466.94;10420233;28;20103;-57
2024/03/17 12:09:42;;;;;;;3.17;2.10;;;;;;;14.34;44.31;100452.25;10388064;28;20084;-57
2024/03/17 12:14:43;;;;;;;2.50;1.60;;;;;;;14.22;44.69;100446.97;10407293;28;20045;-57
2024/03/17 12:19:46;;;;;;;3.85;1.80;;;;;;;13.95;44.60;100444.34;10407778;28;20081;-57
2024/03/17 12:24:59;;;;;;;4.18;1.80;;;;;;;13.89;43.23;100442.13;10423486;28;20497;-57
2024/03/17 12:30:01;;;;;;;2.70;1.80;;;;;;;14.24;44.56;100435.41;10422295;28;20041;-57
2024/03/17 12:35:03;;;;;;;6.88;2.15;;;;;;;14.54;44.57;100430.72;10410173;28;20413;-57
2024/03/17 12:40:05;;;;;;;3.90;2.10;;;;;;;14.70;43.81;100413.88;10459072;28;20132;-57
2024/03/17 12:45:09;;;;;;;3.90;1.85;;;;;;;15.07;42.89;100410.34;10408529;28;20060;-58
2024/03/17 12:50:14;;;;;;;4.50;2.08;;;;;;;15.23;42.79;100403.88;10431777;28;20136;-57
2024/03/17 13:00:38;;;;;;;3.92;2.25;;;;;;;15.74;42.51;100388.75;10402232;28;20608;-57
2024/03/17 13:05:47;;;;;;;3.55;1.60;;;;;;;15.31;40.85;100374.34;10415613;28;20139;-57
2024/03/17 13:10:48;;;;;;;3.78;1.63;;;;;;;15.20;42.51;100358.47;10431763;28;20136;-57
2024/03/17 13:15:49;;;;;;;3.50;2.00;;;;;;;15.06;42.39;100364.72;10398369;28;20044;-58
2024/03/17 13:20:53;;;;;;;5.15;1.63;;;;;;;14.80;43.42;100349.13;10432020;28;20084;-58
2024/03/17 13:25:54;;;;;;;4.78;2.10;;;;;;;14.55;43.63;100342.09;10431680;28;20178;-58
2024/03/17 13:30:55;;;;;;;3.75;1.95;;;;;;;14.65;43.73;100340.50;10431710;28;20175;-56
2024/03/17 13:35:56;;;;;;;3.05;1.75;;;;;;;14.71;43.21;100339.22;10432131;28;20045;-58
2024/03/17 13:40:57;;;;;;;3.05;1.73;;;;;;;14.62;43.64;100331.94;10430949;28;20056;-58
2024/03/17 13:45:58;;;;;;;2.63;1.63;;;;;;;14.80;43.43;100328.03;10416401;28;20076;-58
2024/03/17 13:50:59;;;;;;;3.20;1.80;;;;;;;14.87;43.01;100318.75;10419001;28;20527;-58
2024/03/17 13:56:01;;;;;;;3.60;1.80;;;;;;;14.70;43.83;100311.19;10397904;28;20136;-57
2024/03/17 14:01:02;;;;;;;4.15;2.00;;;;;;;14.61;42.96;100302.16;10428316;28;20080;-58
2024/03/17 14:06:03;;;;;;;5.30;1.92;;;;;;;14.69;43.97;100302.47;10430360;28;20068;-58
2024/03/17 14:11:04;;;;;;;4.55;2.10;;;;;;;14.93;43.18;100297.22;10422955;28;20160;-57
2024/03/17 14:16:05;;;;;;;3.22;1.88;;;;;;;14.71;42.66;100291.81;10426899;28;20072;-57
2024/03/17 14:21:06;;;;;;;3.97;1.90;;;;;;;14.61;42.66;100290.78;10411526;28;20135;-57
2024/03/17 14:26:07;;;;;;;3.45;1.63;;;;;;;14.56;42.65;100291.09;10422121;28;20048;-57
2024/03/17 14:31:08;;;;;;;2.72;1.58;;;;;;;14.74;42.68;100283.69;10432012;28;20130;-58
2024/03/17 14:36:10;;;;;;;7.05;2.15;;;;;;;14.66;43.83;100286.03;10434165;28;20036;-58
2024/03/17 14:41:11;;;;;;;5.63;2.47;;;;;;;14.53;43.91;100279.00;10432413;28;20481;-57
2024/03/17 14:46:13;;;;;;;3.40;1.90;;;;;;;14.61;43.72;100278.47;10433046;28;20068;-58
2024/03/17 14:51:14;;;;;;;6.00;2.38;;;;;;;14.59;44.00;100268.03;10432369;28;20139;-58
2024/03/17 14:56:16;;;;;;;6.78;2.55;;;;;;;14.37;44.36;100267.84;10431749;28;20088;-58
2024/03/17 15:01:17;;;;;;;4.43;1.85;;;;;;;14.36;44.88;100263.53;10415935;28;20136;-58
2024/03/17 15:06:18;;;;;;;4.40;1.95;;;;;;;14.39;44.43;100259.84;10415400;28;20045;-57
2024/03/17 15:11:19;;;;;;;3.58;1.98;;;;;;;14.52;44.12;100255.44;10412797;28;20198;-57
2024/03/17 15:16:23;;;;;;;5.93;2.70;;;;;;;14.34;43.65;100254.06;10429578;28;20064;-57
2024/03/17 15:21:24;;;;;;;8.93;2.70;;;;;;;14.54;44.22;100254.38;10410714;28;20671;-58
2024/03/17 15:26:27;;;;;;;3.55;2.10;;;;;;;14.75;43.91;100249.38;10413929;28;20068;-58
2024/03/17 15:31:30;;;;;;;4.70;2.20;;;;;;;14.96;43.73;100242.53;10431492;28;20040;-59
2024/03/17 15:36:31;;;;;;;5.63;2.72;;;;;;;15.05;43.68;100230.50;10415255;28;20122;-58
2024/03/17 15:41:33;;;;;;;12.35;3.00;;;;;;;15.28;43.48;100233.13;10430611;28;20389;-59
2024/03/17 15:46:34;;;;;;;4.70;2.17;;;;;;;15.24;43.47;100233.47;10431114;28;20081;-58
2024/03/17 15:51:35;;;;;;;5.15;2.22;;;;;;;15.08;43.22;100235.56;10412919;28;20076;-58
2024/03/17 15:56:36;;;;;;;6.38;2.90;;;;;;;14.82;43.79;100226.09;10447703;28;20044;-58
2024/03/17 16:01:37;;;;;;;6.50;2.35;;;;;;;14.79;44.27;100232.41;10430859;28;20040;-58
2024/03/17 16:06:39;;;;;;;2.95;1.77;;;;;;;14.68;44.73;100229.69;10430136;28;20053;-58
2024/03/17 16:11:40;;;;;;;4.20;2.25;;;;;;;14.76;44.57;100224.72;10430774;28;20102;-59
2024/03/17 16:16:42;;;;;;;3.35;1.92;;;;;;;14.66;44.78;100220.22;10430630;28;20091;-58
2024/03/17 16:21:44;;;;;;;3.30;1.95;;;;;;;14.58;45.16;100220.78;10429371;28;20051;-58
2024/03/17 16:26:47;;;;;;;4.47;2.40;;;;;;;14.47;45.36;100229.41;10439552;28;20086;-58
2024/03/17 16:31:50;;;;;;;4.95;2.10;;;;;;;14.16;45.77;100219.38;10436806;28;20132;-57
2024/03/17 16:36:51;;;;;;;4.32;2.00;;;;;;;13.97;45.96;100208.44;10438246;28;20041;-57
2024/03/17 16:41:56;;;;;;;4.65;2.22;;;;;;;13.60;46.59;100206.63;10438621;28;20403;-57
2024/03/17 16:47:00;;;;;;;5.15;2.40;;;;;;;13.26;47.19;100207.19;10420697;28;20037;-58
2024/03/17 16:52:01;;;;;;;4.55;2.25;;;;;;;13.00;47.63;100206.28;10436895;28;20132;-58
2024/03/17 16:57:04;;;;;;;5.10;1.92;;;;;;;12.75;47.90;100214.91;10436334;28;20075;-57
2024/03/17 17:02:14;;;;;;;4.45;1.95;;;;;;;12.56;48.62;100214.38;10434541;28;20048;-57
2024/03/17 17:07:16;;;;;;;3.08;1.90;;;;;;;12.46;48.63;100212.44;10435245;28;20111;-58
2024/03/17 17:12:17;;;;;;;3.35;2.00;;;;;;;12.45;48.73;100205.50;10453321;28;20137;-57
2024/03/17 17:17:18;;;;;;;4.28;2.13;;;;;;;12.44;48.76;100209.06;10433337;28;20033;-57
2024/03/17 17:22:21;;;;;;;5.78;2.78;;;;;;;12.38;48.96;100212.91;10417993;28;20045;-57
2024/03/17 17:27:22;;;;;;;8.15;3.08;;;;;;;12.24;49.38;100209.44;10430873;28;20045;-57
2024/03/17 17:32:24;;;;;;;4.18;2.20;;;;;;;12.13;49.70;100226.66;10414163;28;20041;-58
2024/03/17 17:37:25;;;;;;;5.25;2.20;;;;;;;12.14;49.77;100231.00;10432493;28;20037;-56
2024/03/17 17:42:26;;;;;;;4.68;2.20;;;;;;;12.00;50.23;100224.91;10434401;28;20095;-58
2024/03/17 17:47:28;;;;;;;7.88;2.35;;;;;;;11.87;50.42;100232.66;10430389;28;20220;-57
2024/03/17 17:52:29;;;;;;;3.97;1.92;;;;;;;11.91;50.59;100228.91;10429424;28;20080;-58
2024/03/17 17:57:30;;;;;;;5.85;2.40;;;;;;;11.86;50.66;100224.91;10424049;28;20515;-57
2024/03/17 18:02:31;;;;;;;4.72;2.00;;;;;;;11.76;50.86;100219.38;10408446;28;20147;-57
2024/03/17 18:07:33;;;;;;;5.32;2.30;;;;;;;11.71;51.04;100231.91;10426312;28;20512;-57
2024/03/17 18:12:35;;;;;;;4.97;2.50;;;;;;;11.72;51.40;100230.13;10426295;28;20044;-57
2024/03/17 18:17:36;;;;;;;5.80;2.72;;;;;;;11.74;51.31;100231.72;10413592;28;20044;-59
2024/03/17 18:22:37;;;;;;;5.43;2.72;;;;;;;11.66;51.46;100235.72;10414116;28;20083;-58
2024/03/17 18:27:38;;;;;;;9.57;2.70;;;;;;;11.60;51.58;100229.06;10413035;28;20866;-57
2024/03/17 18:32:39;;;;;;;5.15;3.08;;;;;;;11.46;51.86;100230.81;10429379;28;20041;-58
2024/03/17 18:37:40;;;;;;;5.57;2.72;;;;;;;11.36;51.78;100222.66;10429922;28;20145;-59
2024/03/17 18:42:41;;;;;;;5.43;2.90;;;;;;;11.24;52.15;100226.81;10412038;28;20558;-58
2024/03/17 18:47:42;;;;;;;5.28;3.13;;;;;;;11.13;52.27;100223.97;10402367;28;20092;-59
2024/03/17 18:52:47;;;;;;;5.07;2.50;;;;;;;11.01;52.33;100229.88;10426021;28;20140;-58
2024/03/17 18:57:48;;;;;;;6.20;2.65;;;;;;;10.90;52.48;100242.75;10426900;28;20041;-58
2024/03/17 19:02:50;;;;;;;7.10;3.17;;;;;;;10.86;52.81;100233.38;10406306;28;20144;-58
2024/03/17 19:07:51;;;;;;;5.82;3.30;;;;;;;10.75;53.08;100233.13;10421252;28;20052;-58
2024/03/17 19:12:53;;;;;;;5.70;2.72;;;;;;;10.65;53.08;100229.31;10420680;28;20508;-58
2024/03/17 19:17:54;;;;;;;7.03;2.83;;;;;;;10.52;53.54;100230.09;10420195;28;20084;-59
2024/03/17 19:22:55;;;;;;;4.50;2.72;;;;;;;10.44;53.95;100233.09;10418415;28;21203;-59
2024/03/17 19:27:56;;;;;;;5.55;2.88;;;;;;;10.31;53.70;100232.09;10420266;28;21130;-56
2024/03/17 19:32:57;;;;;;;5.68;2.83;;;;;;;10.05;54.71;100222.19;10404558;28;20136;-57
2024/03/17 19:37:58;;;;;;;5.95;3.65;;;;;;;10.06;54.61;100221.25;10407555;28;20080;-59
2024/03/17 19:42:59;;;;;;;6.30;3.35;;;;;;;10.15;54.69;100219.00;10409470;28;20079;-61
2024/03/17 19:48:00;;;;;;;11.23;3.60;;;;;;;10.22;54.88;100211.66;10409827;28;20077;-61
2024/03/17 19:53:03;;;;;;;5.15;2.90;;;;;;;10.27;54.92;100212.28;10426848;28;20048;-62
2024/03/17 19:58:04;;;;;;;5.93;3.08;;;;;;;10.35;55.05;100215.31;10457628;28;20135;-61
2024/03/17 20:03:06;;;;;;;7.18;3.50;;;;;;;10.22;54.96;100211.66;10409386;28;20336;-60
2024/03/17 20:08:08;;;;;;;7.35;3.60;;;;;;;10.02;55.31;100204.03;10409689;28;20090;-61
2024/03/17 20:13:09;;;;;;;5.28;3.22;;;;;;;9.97;55.63;100206.06;10383792;28;1310997;-61
2024/03/17 20:18:13;;;;;;;6.85;3.80;;;;;;;9.86;55.75;100205.78;10424639;28;20144;-62
2024/03/17 20:23:15;;;;;;;8.18;3.47;;;;;;;9.79;55.78;100205.25;10413343;28;20076;-62
2024/03/17 20:28:16;;;;;;;8.13;4.18;;;;;;;9.88;55.83;100206.53;10428899;28;20064;-61
2024/03/17 20:33:17;;;;;;;10.25;4.07;;;;;;;9.79;55.96;100202.63;10425038;28;20045;-62
2024/03/17 20:38:19;;;;;;;7.70;3.40;;;;;;;9.82;56.15;100196.41;10427641;28;20156;-62
2024/03/17 20:43:20;;;;;;;9.05;3.88;;;;;;;9.82;56.34;100199.88;10427944;28;20056;-62
2024/03/17 20:48:21;;;;;;;7.95;4.00;;;;;;;9.88;56.21;100189.13;10408529;28;20037;-62
2024/03/17 20:53:22;;;;;;;7.82;3.88;;;;;;;9.95;56.36;100189.63;10423236;28;20068;-61
2024/03/17 20:58:23;;;;;;;5.82;3.42;;;;;;;9.99;56.33;100189.38;10438435;28;20555;-62
2024/03/17 21:03:24;;;;;;;8.10;3.97;;;;;;;9.92;56.46;100181.94;10457099;28;20049;-62
2024/03/17 21:08:26;;;;;;;6.00;3.65;;;;;;;9.81;56.59;100173.84;10424108;28;20045;-61
2024/03/17 21:13:27;;;;;;;5.70;3.15;;;;;;;9.82;56.80;100163.31;10434865;28;20147;-62
2024/03/17 21:18:28;;;;;;;7.05;3.60;;;;;;;9.80;56.67;100162.56;10435420;28;20079;-61
2024/03/17 21:23:29;;;;;;;8.65;4.22;;;;;;;9.59;56.81;100155.78;10431295;28;20045;-61
2024/03/17 21:28:30;;;;;;;9.15;3.95;;;;;;;9.45;57.23;100151.31;10400661;28;20047;-61
2024/03/17 21:33:31;;;;;;;9.40;4.47;;;;;;;9.41;57.51;100149.78;10432900;28;20072;-61
2024/03/17 21:38:32;;;;;;;8.73;4.30;;;;;;;9.31;57.82;100143.34;10427985;28;20178;-61
2024/03/17 21:43:33;;;;;;;6.55;3.45;;;;;;;9.34;57.80;100140.56;10418392;28;20435;-61
2024/03/17 21:48:35;;;;;;;8.68;3.72;;;;;;;9.38;57.83;100139.47;10434695;28;20145;-61
2024/03/17 21:53:36;;;;;;;7.63;3.40;;;;;;;9.40;57.84;100123.75;10431325;28;20132;-61
2024/03/17 21:58:37;;;;;;;5.63;3.13;;;;;;;9.35;57.82;100126.59;10429921;28;20061;-61
2024/03/17 22:03:38;;;;;;;6.43;3.42;;;;;;;9.23;58.09;100126.38;10380310;28;20041;-61
2024/03/17 22:08:39;;;;;;;6.13;3.75;;;;;;;9.08;58.43;100124.53;10432250;28;20131;-61
2024/03/17 22:13:40;;;;;;;5.75;3.58;;;;;;;9.06;58.69;100124.63;10415392;28;20106;-61
2024/03/17 22:18:43;;;;;;;5.80;3.75;;;;;;;9.10;58.78;100120.94;10392352;28;20052;-61
2024/03/17 22:23:46;;;;;;;8.88;4.72;;;;;;;9.23;58.69;100135.06;10406377;28;20088;-61
2024/03/17 22:28:47;;;;;;;12.75;5.93;;;;;;;9.37;58.74;100126.50;10427981;28;20049;-61
2024/03/17 22:33:50;;;;;;;11.40;4.88;;;;;;;9.46;58.52;100129.47;10428371;28;20080;-61
2024/03/17 22:38:51;;;;;;;7.43;4.55;;;;;;;9.59;58.42;100117.47;10463369;28;20087;-61
2024/03/17 22:43:53;;;;;;;7.68;3.83;;;;;;;9.64;58.14;100112.03;10445725;28;20053;-61
2024/03/17 22:48:54;;;;;;;6.90;3.78;;;;;;;9.61;58.30;100110.41;10429589;28;20052;-61
2024/03/17 22:53:55;;;;;;;6.97;4.15;;;;;;;9.58;58.22;100110.56;10430508;28;20044;-61
2024/03/17 22:58:59;;;;;;;8.60;4.18;;;;;;;9.46;58.53;100111.22;10427910;28;20766;-61
2024/03/17 23:04:05;;;;;;;7.15;4.18;;;;;;;9.43;58.75;100107.91;10412090;28;20056;-61
2024/03/17 23:09:06;;;;;;;5.80;3.33;;;;;;;9.33;58.85;100104.97;10423878;28;20132;-61
2024/03/17 23:14:07;;;;;;;7.05;3.63;;;;;;;9.29;59.11;100098.22;10427853;28;20139;-61
2024/03/17 23:19:09;;;;;;;6.18;4.00;;;;;;;9.31;59.20;100106.81;10427662;28;20069;-62
2024/03/17 23:24:11;;;;;;;10.70;4.50;;;;;;;9.37;59.18;100096.03;10428483;28;20052;-62